Time;durP1;ratioP1;P1;durP2;ratioP2;P2;SDS_P1;SDS_P2;PMS_P1;PMS_P2;Temp;Humidity;BMP_temperature;BMP_pressure;BME280_temperature;BME280_humidity;BME280_pressure;Samples;Min_cycle;Max_cycle;Signal;HPM_P1;HPM_P2
2023/10/17 00:02:19;;;;;;;7.57;5.25;;;;;;;;;;4975287;28;20042;-77
2023/10/17 00:04:45;;;;;;;9.70;5.57;;;;;;;;;;4980078;28;20058;-77
2023/10/17 00:07:11;;;;;;;7.78;5.10;;;;;;;;;;4980740;28;20042;-77
2023/10/17 00:09:37;;;;;;;9.45;5.60;;;;;;;;;;4968961;28;20046;-77
2023/10/17 00:12:14;;;;;;;11.07;5.53;;;;;;;;;;4976431;28;20047;-76
2023/10/17 00:17:33;;;;;;;11.50;5.32;;;;;;;;;;4969469;28;20131;-77
2023/10/17 00:20:03;;;;;;;9.05;5.25;;;;;;;;;;4968286;28;20083;-76
2023/10/17 00:22:29;;;;;;;7.82;5.30;;;;;;;;;;4979769;28;20047;-77
2023/10/17 00:25:00;;;;;;;12.05;5.75;;;;;;;;;;4973667;28;20045;-76
2023/10/17 00:27:26;;;;;;;9.30;5.80;;;;;;;;;;4971180;28;21386;-77
2023/10/17 00:29:52;;;;;;;7.88;5.15;;;;;;;;;;4970623;28;20038;-77
2023/10/17 00:32:18;;;;;;;6.35;5.22;;;;;;;;;;4982520;28;20075;-77
2023/10/17 00:34:46;;;;;;;8.60;5.18;;;;;;;;;;4989574;28;20046;-76
2023/10/17 00:37:14;;;;;;;9.10;4.88;;;;;;;;;;5004036;28;20062;-77
2023/10/17 00:39:40;;;;;;;8.80;4.78;;;;;;;;;;4970428;28;20051;-76
2023/10/17 00:44:33;;;;;;;9.48;5.25;;;;;;;;;;4985132;28;20035;-76
2023/10/17 00:46:59;;;;;;;8.00;4.95;;;;;;;;;;4977743;28;20058;-76
2023/10/17 00:49:26;;;;;;;8.50;5.50;;;;;;;;;;4971864;28;20046;-76
2023/10/17 00:51:58;;;;;;;7.25;5.13;;;;;;;;;;4970067;28;20125;-76
2023/10/17 00:54:25;;;;;;;7.97;5.10;;;;;;;;;;4970996;28;20047;-77
2023/10/17 00:56:55;;;;;;;9.23;4.90;;;;;;;;;;4975001;28;20065;-77
2023/10/17 00:59:24;;;;;;;9.18;5.25;;;;;;;;;;5009301;28;20051;-76
2023/10/17 01:01:50;;;;;;;8.27;4.90;;;;;;;;;;4975559;28;20054;-76
2023/10/17 01:04:19;;;;;;;8.65;4.65;;;;;;;;;;4985770;28;20046;-77
2023/10/17 01:06:46;;;;;;;7.38;4.43;;;;;;;;;;4991575;28;20457;-76
2023/10/17 01:09:19;;;;;;;9.68;5.20;;;;;;;;;;4967021;28;20047;-77
2023/10/17 01:11:45;;;;;;;11.45;4.90;;;;;;;;;;4974350;28;20054;-76
2023/10/17 01:14:18;;;;;;;8.82;4.60;;;;;;;;;;4978014;28;20050;-76
2023/10/17 01:16:45;;;;;;;7.95;4.72;;;;;;;;;;4978327;28;20061;-76
2023/10/17 01:19:11;;;;;;;10.90;4.63;;;;;;;;;;4978346;28;20069;-76
2023/10/17 01:21:40;;;;;;;7.30;4.57;;;;;;;;;;4966418;28;20058;-76
2023/10/17 01:24:07;;;;;;;5.47;4.32;;;;;;;;;;4965477;28;20043;-76
2023/10/17 01:26:37;;;;;;;7.32;5.25;;;;;;;;;;4974600;28;20055;-76
2023/10/17 01:29:04;;;;;;;8.90;5.00;;;;;;;;;;4979200;28;20573;-76
2023/10/17 01:31:31;;;;;;;10.70;4.72;;;;;;;;;;4977856;28;20047;-76
2023/10/17 01:34:00;;;;;;;6.15;4.60;;;;;;;;;;4979644;28;20084;-76
2023/10/17 01:36:26;;;;;;;7.90;4.20;;;;;;;;;;4979916;28;20141;-76
2023/10/17 01:38:54;;;;;;;7.05;4.55;;;;;;;;;;4981269;28;20050;-76
2023/10/17 01:41:20;;;;;;;8.57;4.57;;;;;;;;;;4977730;28;20069;-77
2023/10/17 01:43:47;;;;;;;8.63;4.45;;;;;;;;;;4973190;28;20047;-76
2023/10/17 01:46:21;;;;;;;5.88;3.90;;;;;;;;;;4974208;28;20046;-76
2023/10/17 01:48:48;;;;;;;5.60;4.53;;;;;;;;;;4974469;28;20093;-76
2023/10/17 01:51:15;;;;;;;9.80;5.00;;;;;;;;;;4976224;28;20439;-76
2023/10/17 01:53:43;;;;;;;9.15;4.32;;;;;;;;;;4966891;28;20058;-76
2023/10/17 01:56:15;;;;;;;8.18;4.53;;;;;;;;;;4969308;28;20061;-77
2023/10/17 01:58:48;;;;;;;7.60;4.23;;;;;;;;;;4975020;28;20447;-76
2023/10/17 02:01:17;;;;;;;7.65;4.47;;;;;;;;;;4970431;28;20093;-76
2023/10/17 02:03:46;;;;;;;7.22;4.25;;;;;;;;;;4981505;28;20516;-76
2023/10/17 02:06:16;;;;;;;8.85;4.20;;;;;;;;;;4986308;28;20517;-77
2023/10/17 02:08:46;;;;;;;8.25;4.55;;;;;;;;;;4983410;28;20054;-76
2023/10/17 02:11:18;;;;;;;8.82;4.18;;;;;;;;;;4968871;28;20054;-76
2023/10/17 02:13:45;;;;;;;8.23;4.57;;;;;;;;;;4969106;28;20038;-76
2023/10/17 02:16:12;;;;;;;8.00;4.15;;;;;;;;;;4974978;28;20145;-76
2023/10/17 02:18:38;;;;;;;7.07;4.30;;;;;;;;;;4997082;28;20053;-77
2023/10/17 02:21:04;;;;;;;9.23;4.35;;;;;;;;;;4975985;28;20066;-76
2023/10/17 02:23:40;;;;;;;9.98;4.70;;;;;;;;;;4975562;28;20055;-76
2023/10/17 02:26:10;;;;;;;8.57;4.85;;;;;;;;;;4975733;28;20042;-76
2023/10/17 02:29:24;;;;;;;7.70;4.68;;;;;;;;;;4980661;28;20046;-76
2023/10/17 02:31:27;;;;;;;6.80;4.88;;;;;;;;;;4966152;28;20495;-77
2023/10/17 02:33:54;;;;;;;8.40;4.55;;;;;;;;;;5004339;28;20057;-76
2023/10/17 02:36:20;;;;;;;8.88;4.80;;;;;;;;;;5010159;28;20578;-76
2023/10/17 02:38:46;;;;;;;6.55;4.50;;;;;;;;;;4979099;28;20110;-76
2023/10/17 02:41:18;;;;;;;8.13;5.03;;;;;;;;;;4981182;28;20421;-77
2023/10/17 02:43:45;;;;;;;10.88;5.10;;;;;;;;;;4987908;28;20532;-76
2023/10/17 02:46:14;;;;;;;9.30;5.72;;;;;;;;;;4972405;28;20426;-76
2023/10/17 02:48:42;;;;;;;8.70;4.95;;;;;;;;;;4983628;28;20097;-76
2023/10/17 02:51:31;;;;;;;8.88;5.80;;;;;;;;;;4976921;28;20659;-76
2023/10/17 02:53:56;;;;;;;7.28;5.82;;;;;;;;;;4976616;28;20042;-76
2023/10/17 02:56:23;;;;;;;11.23;6.30;;;;;;;;;;4980050;28;20054;-76
2023/10/17 02:58:50;;;;;;;10.88;6.25;;;;;;;;;;4980910;28;20448;-76
2023/10/17 03:01:17;;;;;;;7.60;5.65;;;;;;;;;;4969039;28;20137;-76
2023/10/17 03:03:49;;;;;;;10.50;5.93;;;;;;;;;;4972068;28;20043;-76
2023/10/17 03:06:16;;;;;;;8.13;6.15;;;;;;;;;;4972509;28;20055;-76
2023/10/17 03:08:49;;;;;;;8.23;6.13;;;;;;;;;;4974535;28;20113;-76
2023/10/17 03:11:17;;;;;;;10.25;6.03;;;;;;;;;;4981319;28;20539;-77
2023/10/17 03:13:43;;;;;;;11.38;7.05;;;;;;;;;;4972841;28;20471;-76
2023/10/17 03:16:17;;;;;;;10.20;6.50;;;;;;;;;;4980623;28;20047;-76
2023/10/17 03:18:45;;;;;;;;;;;;;;;;;;4972997;28;20035;-76
2023/10/17 03:21:12;;;;;;;8.35;6.20;;;;;;;;;;4968064;28;19953;-76
2023/10/17 03:23:46;;;;;;;9.23;6.18;;;;;;;;;;4988341;28;20078;-76
2023/10/17 03:26:12;;;;;;;10.95;6.80;;;;;;;;;;4979786;28;20051;-76
2023/10/17 03:28:40;;;;;;;11.52;6.85;;;;;;;;;;4983329;28;20074;-76
2023/10/17 03:31:10;;;;;;;11.45;7.22;;;;;;;;;;4975159;28;20043;-76
2023/10/17 03:33:50;;;;;;;8.77;6.20;;;;;;;;;;4974498;28;20763;-76
2023/10/17 03:36:40;;;;;;;10.77;6.90;;;;;;;;;;4979422;28;20117;-76
2023/10/17 03:39:26;;;;;;;8.18;6.35;;;;;;;;;;4965663;28;20051;-76
2023/10/17 03:41:58;;;;;;;9.10;6.63;;;;;;;;;;4969663;28;20061;-77
2023/10/17 03:44:31;;;;;;;8.65;6.57;;;;;;;;;;4975849;28;20100;-76
2023/10/17 03:47:04;;;;;;;9.18;6.85;;;;;;;;;;4973802;28;20471;-76
2023/10/17 03:49:36;;;;;;;10.40;6.80;;;;;;;;;;4978723;28;20057;-76
2023/10/17 03:52:06;;;;;;;10.77;6.93;;;;;;;;;;4975179;28;20058;-76
2023/10/17 03:54:38;;;;;;;8.68;6.75;;;;;;;;;;4976215;28;20058;-76
2023/10/17 03:57:07;;;;;;;12.20;7.30;;;;;;;;;;4987527;28;20073;-76
2023/10/17 03:59:39;;;;;;;15.25;7.72;;;;;;;;;;4983146;28;20431;-76
2023/10/17 04:02:13;;;;;;;14.48;7.82;;;;;;;;;;4966286;28;20513;-77
2023/10/17 04:04:49;;;;;;;10.23;7.38;;;;;;;;;;4975761;28;20434;-76
2023/10/17 04:07:16;;;;;;;13.60;7.45;;;;;;;;;;4977339;28;20058;-77
2023/10/17 04:10:02;;;;;;;10.43;7.70;;;;;;;;;;4979750;28;20077;-77
2023/10/17 04:12:37;;;;;;;10.88;8.00;;;;;;;;;;5007522;28;20054;-76
2023/10/17 04:15:07;;;;;;;12.10;8.05;;;;;;;;;;4968019;28;20090;-76
2023/10/17 04:17:36;;;;;;;12.77;8.57;;;;;;;;;;5014138;28;20102;-76
2023/10/17 04:20:11;;;;;;;11.77;8.70;;;;;;;;;;4999267;28;20399;-76
2023/10/17 04:22:43;;;;;;;18.42;16.73;;;;;;;;;;4976274;28;20078;-76
2023/10/17 04:28:08;;;;;;;13.38;10.48;;;;;;;;;;4972616;28;20140;-76
2023/10/17 04:30:46;;;;;;;12.57;9.50;;;;;;;;;;4966948;28;20046;-76
2023/10/17 04:33:19;;;;;;;11.25;9.07;;;;;;;;;;4975500;28;20121;-76
2023/10/17 04:35:55;;;;;;;12.73;8.18;;;;;;;;;;4996771;28;20050;-76
2023/10/17 04:38:36;;;;;;;12.15;8.45;;;;;;;;;;4969828;28;20465;-77
2023/10/17 04:41:30;;;;;;;15.57;8.73;;;;;;;;;;4974411;28;20105;-76
2023/10/17 04:44:03;;;;;;;12.23;8.55;;;;;;;;;;4976205;28;20100;-76
2023/10/17 04:46:29;;;;;;;12.30;8.88;;;;;;;;;;4972018;28;20089;-76
2023/10/17 04:49:06;;;;;;;12.15;9.07;;;;;;;;;;4977055;28;20129;-76
2023/10/17 04:51:38;;;;;;;11.80;8.93;;;;;;;;;;4970725;28;20451;-76
2023/10/17 04:54:09;;;;;;;10.90;9.25;;;;;;;;;;4982677;28;20080;-76
2023/10/17 04:56:53;;;;;;;10.98;8.70;;;;;;;;;;4966016;28;20046;-76
2023/10/17 04:59:28;;;;;;;10.00;9.00;;;;;;;;;;4972121;28;20051;-76
2023/10/17 05:02:14;;;;;;;14.57;9.75;;;;;;;;;;4967938;28;20047;-76
2023/10/17 05:07:27;;;;;;;15.75;9.80;;;;;;;;;;4990464;28;20083;-76
2023/10/17 06:18:38;;;;;;;14.80;9.95;;;;;;;;;;4970030;28;20047;-78
2023/10/17 06:34:22;;;;;;;12.20;8.50;;;;;;;;;;4968598;28;20109;-78
2023/10/17 06:37:01;;;;;;;18.63;9.43;;;;;;;;;;4973773;28;20054;-77
2023/10/17 06:42:31;;;;;;;14.07;9.13;;;;;;;;;;4947012;28;20065;-82
2023/10/17 06:45:07;;;;;;;11.50;8.35;;;;;;;;;;4968949;28;20090;-82
2023/10/17 06:47:47;;;;;;;13.77;8.63;;;;;;;;;;4971701;28;20054;-82
2023/10/17 06:53:02;;;;;;;11.55;8.23;;;;;;;;;;4970418;28;20144;-82
2023/10/17 06:55:58;;;;;;;11.05;7.95;;;;;;;;;;4971790;28;20043;-82
2023/10/17 06:58:27;;;;;;;11.55;7.80;;;;;;;;;;4970829;28;20461;-83
2023/10/17 07:00:53;;;;;;;12.98;8.35;;;;;;;;;;4971190;28;20054;-83
2023/10/17 07:03:26;;;;;;;13.32;9.20;;;;;;;;;;4970381;28;20043;-83
2023/10/17 07:06:03;;;;;;;18.40;10.68;;;;;;;;;;4971904;28;20047;-83
2023/10/17 07:08:36;;;;;;;19.15;10.40;;;;;;;;;;4970915;28;20050;-82
2023/10/17 07:11:02;;;;;;;31.38;14.82;;;;;;;;;;4971369;28;20483;-82
2023/10/17 07:13:49;;;;;;;23.45;12.98;;;;;;;;;;4971833;28;20081;-82
2023/10/17 07:16:16;;;;;;;18.55;10.77;;;;;;;;;;4967927;28;20086;-82
2023/10/17 07:18:51;;;;;;;15.80;9.35;;;;;;;;;;4971452;28;20047;-82
2023/10/17 07:21:23;;;;;;;14.55;8.65;;;;;;;;;;4971486;28;20467;-84
2023/10/17 07:23:49;;;;;;;15.75;8.98;;;;;;;;;;4970682;28;20058;-83
2023/10/17 07:28:54;;;;;;;12.10;8.38;;;;;;;;;;4969126;28;20057;-82
2023/10/17 07:31:22;;;;;;;13.40;8.38;;;;;;;;;;4964115;28;20098;-82
2023/10/17 07:34:07;;;;;;;13.73;8.35;;;;;;;;;;4969179;28;20498;-82
2023/10/17 07:36:34;;;;;;;12.50;8.10;;;;;;;;;;4972333;28;20078;-83
2023/10/17 07:39:05;;;;;;;11.30;8.55;;;;;;;;;;4966094;28;20046;-83
2023/10/17 07:41:37;;;;;;;14.13;8.43;;;;;;;;;;4970810;28;20098;-83
2023/10/17 07:44:19;;;;;;;12.23;8.32;;;;;;;;;;5000883;28;20085;-82
2023/10/17 07:46:48;;;;;;;11.70;7.47;;;;;;;;;;4966972;28;20046;-83
2023/10/17 07:49:16;;;;;;;11.82;7.03;;;;;;;;;;4970495;28;20042;-82
2023/10/17 07:51:42;;;;;;;9.38;6.35;;;;;;;;;;4968938;28;20042;-83
2023/10/17 07:54:09;;;;;;;8.95;6.72;;;;;;;;;;4967547;28;20050;-82
2023/10/17 07:56:35;;;;;;;11.15;6.68;;;;;;;;;;4969708;28;20555;-83
2023/10/17 07:59:08;;;;;;;12.52;6.20;;;;;;;;;;4972030;28;20043;-83
2023/10/17 08:01:42;;;;;;;11.85;6.35;;;;;;;;;;4964440;28;20047;-82
2023/10/17 08:04:26;;;;;;;8.55;6.00;;;;;;;;;;4970183;28;20129;-83
2023/10/17 08:06:53;;;;;;;11.65;6.00;;;;;;;;;;4970728;28;20043;-83
2023/10/17 08:11:51;;;;;;;8.70;5.47;;;;;;;;;;4971817;28;20046;-82
2023/10/17 08:14:19;;;;;;;22.10;11.00;;;;;;;;;;4969755;28;20518;-83
2023/10/17 08:16:48;;;;;;;17.38;8.27;;;;;;;;;;4962592;28;20051;-81
2023/10/17 08:19:29;;;;;;;10.60;6.68;;;;;;;;;;4968266;28;20047;-83
2023/10/17 08:24:34;;;;;;;16.45;7.25;;;;;;;;;;4971007;28;20050;-83
2023/10/17 08:35:08;;;;;;;9.40;4.93;;;;;;;;;;4970211;28;20250;-83
2023/10/17 08:37:43;;;;;;;7.03;4.47;;;;;;;;;;4974923;28;20086;-83
2023/10/17 08:43:10;;;;;;;9.15;3.70;;;;;;;;;;4962631;28;20063;-83
2023/10/17 08:45:41;;;;;;;6.70;3.75;;;;;;;;;;4981373;28;20129;-83
2023/10/17 08:48:09;;;;;;;9.75;4.07;;;;;;;;;;4972107;28;20113;-83
2023/10/17 08:50:39;;;;;;;6.85;4.00;;;;;;;;;;4965445;28;20106;-82
2023/10/17 08:53:13;;;;;;;7.43;4.43;;;;;;;;;;4969054;28;20142;-83
2023/10/17 08:55:40;;;;;;;8.45;4.68;;;;;;;;;;4985365;28;20129;-82
2023/10/17 08:58:09;;;;;;;10.38;5.53;;;;;;;;;;4967271;28;20050;-83
2023/10/17 09:03:20;;;;;;;9.38;4.10;;;;;;;;;;4970033;28;20131;-83
2023/10/17 09:08:56;;;;;;;7.93;3.90;;;;;;;;;;4968999;28;20078;-83
2023/10/17 09:11:29;;;;;;;6.90;3.85;;;;;;;;;;4963263;28;20043;-83
2023/10/17 09:14:18;;;;;;;9.15;5.00;;;;;;;;;;4968322;28;20054;-82
2023/10/17 09:16:49;;;;;;;17.40;6.00;;;;;;;;;;4965588;28;20046;-83
2023/10/17 09:19:16;;;;;;;14.73;6.18;;;;;;;;;;4967410;28;20066;-83
2023/10/17 09:21:47;;;;;;;10.57;4.78;;;;;;;;;;4962546;28;20043;-83
2023/10/17 09:24:33;;;;;;;15.95;6.75;;;;;;;;;;4968698;28;20166;-83
2023/10/17 09:26:59;;;;;;;9.55;4.32;;;;;;;;;;4966840;28;20046;-83
2023/10/17 09:29:27;;;;;;;9.10;4.35;;;;;;;;;;4965394;28;20047;-83
2023/10/17 09:31:53;;;;;;;14.60;6.38;;;;;;;;;;4966117;28;20055;-83
2023/10/17 09:34:25;;;;;;;8.32;4.43;;;;;;;;;;4968193;28;20130;-83
2023/10/17 09:36:53;;;;;;;7.50;4.00;;;;;;;;;;4967986;28;20057;-83
2023/10/17 09:39:27;;;;;;;7.38;3.90;;;;;;;;;;4967280;28;20525;-83
2023/10/17 09:41:53;;;;;;;5.35;3.50;;;;;;;;;;4968213;28;20499;-83
2023/10/17 09:44:19;;;;;;;7.32;3.88;;;;;;;;;;4967909;28;20062;-84
2023/10/17 09:46:50;;;;;;;7.75;3.83;;;;;;;;;;4967918;28;20113;-83
2023/10/17 09:49:19;;;;;;;4.07;3.20;;;;;;;;;;4972995;28;20051;-83
2023/10/17 09:51:46;;;;;;;8.27;3.90;;;;;;;;;;4973802;28;20057;-83
2023/10/17 09:54:13;;;;;;;7.03;3.30;;;;;;;;;;4977006;28;20511;-83
2023/10/17 09:56:40;;;;;;;3.50;2.85;;;;;;;;;;4970672;28;20081;-83
2023/10/17 09:59:11;;;;;;;7.85;3.58;;;;;;;;;;4971612;28;20054;-83
2023/10/17 10:01:39;;;;;;;3.58;2.30;;;;;;;;;;4971597;28;20052;-83
2023/10/17 10:04:07;;;;;;;4.38;2.20;;;;;;;;;;4986257;28;20053;-82
2023/10/17 10:06:33;;;;;;;3.67;2.50;;;;;;;;;;4970482;28;20196;-83
2023/10/17 10:09:09;;;;;;;7.63;2.67;;;;;;;;;;4971229;28;20089;-83
2023/10/17 10:11:51;;;;;;;5.50;2.30;;;;;;;;;;4972288;28;20051;-83
2023/10/17 10:14:26;;;;;;;4.03;2.20;;;;;;;;;;4970651;28;20102;-83
2023/10/17 10:16:54;;;;;;;4.13;2.30;;;;;;;;;;4969259;28;20618;-83
2023/10/17 10:19:23;;;;;;;5.18;2.28;;;;;;;;;;4969762;28;20694;-83
2023/10/17 10:21:56;;;;;;;3.75;2.10;;;;;;;;;;4971269;28;20340;-83
2023/10/17 10:24:30;;;;;;;3.67;1.85;;;;;;;;;;4972368;28;20494;-83
2023/10/17 10:27:16;;;;;;;5.72;2.17;;;;;;;;;;4971884;28;20061;-83
2023/10/17 10:29:47;;;;;;;5.65;2.30;;;;;;;;;;4968526;28;20039;-80
2023/10/17 10:32:25;;;;;;;5.10;2.03;;;;;;;;;;4968468;28;20053;-83
2023/10/17 10:34:51;;;;;;;2.42;1.90;;;;;;;;;;4970956;28;20047;-83
2023/10/17 10:37:20;;;;;;;1.88;1.67;;;;;;;;;;4970523;28;20264;-83
2023/10/17 10:40:16;;;;;;;5.90;2.00;;;;;;;;;;4972073;28;20392;-83
2023/10/17 10:42:47;;;;;;;3.33;2.03;;;;;;;;;;4972164;28;20126;-83
2023/10/17 10:45:47;;;;;;;2.28;2.00;;;;;;;;;;4966952;28;20566;-83
2023/10/17 10:48:17;;;;;;;3.42;2.03;;;;;;;;;;4968875;28;20083;-83
2023/10/17 10:50:46;;;;;;;2.45;1.83;;;;;;;;;;4970075;28;20145;-83
2023/10/17 10:53:39;;;;;;;5.43;2.30;;;;;;;;;;4969817;28;20058;-83
2023/10/17 10:56:11;;;;;;;3.33;2.03;;;;;;;;;;4966466;28;20058;-83
2023/10/17 10:58:43;;;;;;;4.07;2.50;;;;;;;;;;4968371;28;20047;-83
2023/10/17 11:01:09;;;;;;;2.47;2.00;;;;;;;;;;4970608;28;20055;-83
2023/10/17 11:03:48;;;;;;;7.93;2.20;;;;;;;;;;4970878;28;20062;-83
2023/10/17 11:06:14;;;;;;;4.20;2.25;;;;;;;;;;4969480;28;20053;-82
2023/10/17 11:08:43;;;;;;;5.18;1.88;;;;;;;;;;4967997;28;20070;-82
2023/10/17 11:11:10;;;;;;;3.60;2.10;;;;;;;;;;5001869;28;20055;-83
2023/10/17 11:13:56;;;;;;;3.60;2.10;;;;;;;;;;4967165;28;20487;-83
2023/10/17 11:16:24;;;;;;;5.45;2.60;;;;;;;;;;4965495;28;20132;-83
2023/10/17 11:18:51;;;;;;;3.40;2.40;;;;;;;;;;4968940;28;20050;-82
2023/10/17 11:21:20;;;;;;;5.55;2.90;;;;;;;;;;4968843;28;20426;-83
2023/10/17 11:23:50;;;;;;;5.75;2.60;;;;;;;;;;4969085;28;20043;-83
2023/10/17 11:26:17;;;;;;;6.50;2.28;;;;;;;;;;4965745;28;20522;-83
2023/10/17 11:28:51;;;;;;;2.42;2.00;;;;;;;;;;4964821;28;20380;-83
2023/10/17 11:31:36;;;;;;;4.22;2.30;;;;;;;;;;4971210;28;20411;-83
2023/10/17 11:34:04;;;;;;;4.82;2.10;;;;;;;;;;4984990;28;20406;-83
2023/10/17 11:36:36;;;;;;;4.35;2.45;;;;;;;;;;4962529;28;20058;-83
2023/10/17 11:39:05;;;;;;;4.47;2.22;;;;;;;;;;4966175;28;20047;-82
2023/10/17 11:41:39;;;;;;;4.03;2.38;;;;;;;;;;4969792;28;20058;-83
2023/10/17 11:44:05;;;;;;;;;;;;;;;;;;4969443;28;20080;-83
2023/10/17 11:46:31;;;;;;;;;;;;;;;;;;4958745;28;19965;-84
2023/10/17 11:48:57;;;;;;;;;;;;;;;;;;4964690;28;19930;-84
2023/10/17 11:51:29;;;;;;;;;;;;;;;;;;4962679;28;20071;-83
2023/10/17 11:53:55;;;;;;;;;;;;;;;;;;4971563;28;19922;-82
2023/10/17 11:56:20;;;;;;;;;;;;;;;;;;4969755;28;19997;-83
2023/10/17 11:58:46;;;;;;;;;;;;;;;;;;4970908;28;19929;-83
2023/10/17 12:01:12;;;;;;;;;;;;;;;;;;4967942;28;19929;-82
2023/10/17 12:03:38;;;;;;;;;;;;;;;;;;4973998;28;20020;-83
2023/10/17 12:06:06;;;;;;;;;;;;;;;;;;4970944;28;20347;-82
2023/10/17 12:08:32;;;;;;;;;;;;;;;;;;4979559;28;20485;-82
2023/10/17 12:10:58;;;;;;;;;;;;;;;;;;4998742;28;20062;-83
2023/10/17 12:13:26;;;;;;;;;;;;;;;;;;4970231;28;19922;-82
2023/10/17 12:15:52;;;;;;;;;;;;;;;;;;4970626;28;19922;-83
2023/10/17 12:18:19;;;;;;;;;;;;;;;;;;4969597;28;20269;-83
2023/10/17 12:20:49;;;;;;;;;;;;;;;;;;4971491;28;19925;-83
2023/10/17 12:23:18;;;;;;;;;;;;;;;;;;4970375;28;19933;-83
2023/10/17 12:25:44;;;;;;;;;;;;;;;;;;4972189;28;19933;-83
2023/10/17 12:28:10;;;;;;;;;;;;;;;;;;4968640;28;19928;-84
2023/10/17 12:30:36;;;;;;;;;;;;;;;;;;4969814;28;19926;-83
2023/10/17 12:33:03;;;;;;;;;;;;;;;;;;4996574;28;19922;-83
2023/10/17 12:35:29;;;;;;;;;;;;;;;;;;4966355;28;19929;-83
2023/10/17 12:37:59;;;;;;;;;;;;;;;;;;4970176;28;19921;-83
2023/10/17 12:40:25;;;;;;;;;;;;;;;;;;4970300;28;20023;-83
2023/10/17 12:42:51;;;;;;;;;;;;;;;;;;4964888;28;20026;-83
2023/10/17 12:45:20;;;;;;;;;;;;;;;;;;4966965;28;20318;-84
2023/10/17 12:47:49;;;;;;;;;;;;;;;;;;4970883;28;19951;-83
2023/10/17 12:50:15;;;;;;;;;;;;;;;;;;4964916;28;20057;-83
2023/10/17 12:52:41;;;;;;;;;;;;;;;;;;4971790;28;19929;-83
2023/10/17 12:55:07;;;;;;;;;;;;;;;;;;4962879;28;19926;-83
2023/10/17 12:57:33;;;;;;;;;;;;;;;;;;4969348;28;19968;-83
2023/10/17 12:59:59;;;;;;;;;;;;;;;;;;4975944;28;20016;-83
2023/10/17 13:02:29;;;;;;;;;;;;;;;;;;4973206;28;19928;-83
2023/10/17 13:04:55;;;;;;;;;;;;;;;;;;4964737;28;19918;-83
2023/10/17 13:07:22;;;;;;;;;;;;;;;;;;5005106;28;19922;-83
2023/10/17 13:09:48;;;;;;;;;;;;;;;;;;4973055;28;20309;-84
2023/10/17 13:12:14;;;;;;;;;;;;;;;;;;4969525;28;20292;-83
2023/10/17 13:14:40;;;;;;;;;;;;;;;;;;4969403;28;20353;-84
2023/10/17 13:17:11;;;;;;;;;;;;;;;;;;4970070;28;19922;-84
2023/10/17 13:19:42;;;;;;;;;;;;;;;;;;4970781;28;19925;-84
2023/10/17 13:22:14;;;;;;;;;;;;;;;;;;5001483;28;19933;-84
2023/10/17 13:24:40;;;;;;;;;;;;;;;;;;4970295;28;19929;-84
2023/10/17 13:27:06;;;;;;;;;;;;;;;;;;4966168;28;19923;-84
2023/10/17 13:29:32;;;;;;;;;;;;;;;;;;4966721;28;20402;-84
2023/10/17 13:31:58;;;;;;;;;;;;;;;;;;4997917;28;19972;-84
2023/10/17 13:34:27;;;;;;;;;;;;;;;;;;4971652;28;19918;-84
2023/10/17 13:36:53;;;;;;;;;;;;;;;;;;4970802;28;19922;-84
2023/10/17 13:39:22;;;;;;;;;;;;;;;;;;4965775;28;19994;-84
2023/10/17 13:41:48;;;;;;;;;;;;;;;;;;4967319;28;19933;-84
2023/10/17 13:44:15;;;;;;;;;;;;;;;;;;4968257;28;19933;-85
2023/10/17 13:46:41;;;;;;;;;;;;;;;;;;4967756;28;20298;-85
2023/10/17 13:49:07;;;;;;;;;;;;;;;;;;4966157;28;19992;-84
2023/10/17 13:51:38;;;;;;;;;;;;;;;;;;4998511;28;20409;-84
2023/10/17 13:54:05;;;;;;;;;;;;;;;;;;4965224;28;19922;-85
2023/10/17 13:56:33;;;;;;;;;;;;;;;;;;4970383;28;20293;-85
2023/10/17 13:58:59;;;;;;;;;;;;;;;;;;4968138;28;20020;-84
2023/10/17 14:01:31;;;;;;;;;;;;;;;;;;4962189;28;20012;-85
2023/10/17 14:03:57;;;;;;;;;;;;;;;;;;4967343;28;19969;-84
2023/10/17 14:06:23;;;;;;;;;;;;;;;;;;4984673;28;20348;-84
2023/10/17 14:08:50;;;;;;;;;;;;;;;;;;4970780;28;19973;-85
2023/10/17 14:11:19;;;;;;;;;;;;;;;;;;4969353;28;20417;-85
2023/10/17 14:13:49;;;;;;;;;;;;;;;;;;4969920;28;20318;-85
2023/10/17 14:16:15;;;;;;;;;;;;;;;;;;4968712;28;20390;-85
2023/10/17 14:18:44;;;;;;;;;;;;;;;;;;4970134;28;20010;-84
2023/10/17 14:24:27;;;;;;;;;;;;;;;;;;4960902;28;19979;-84
2023/10/17 14:26:53;;;;;;;;;;;;;;;;;;4959034;28;20297;-85
2023/10/17 14:29:21;;;;;;;;;;;;;;;;;;4974443;28;20426;-85
2023/10/17 14:31:46;;;;;;;;;;;;;;;;;;4970623;28;19922;-85
2023/10/17 14:34:12;;;;;;;;;;;;;;;;;;4972425;28;20428;-85
2023/10/17 14:36:38;;;;;;;;;;;;;;;;;;5005365;28;20056;-84
2023/10/17 14:39:09;;;;;;;;;;;;;;;;;;4974098;28;19926;-84
2023/10/17 14:41:36;;;;;;;;;;;;;;;;;;4966097;28;20024;-84
2023/10/17 14:44:03;;;;;;;;;;;;;;;;;;4973346;28;19922;-84
2023/10/17 14:46:30;;;;;;;;;;;;;;;;;;4973105;28;19973;-85
2023/10/17 14:48:56;;;;;;;;;;;;;;;;;;4971249;28;19922;-84
2023/10/17 14:51:22;;;;;;;;;;;;;;;;;;4972682;28;19926;-84
2023/10/17 14:53:48;;;;;;;;;;;;;;;;;;4972202;28;19973;-86
2023/10/17 14:56:14;;;;;;;;;;;;;;;;;;4969879;28;19922;-78
2023/10/17 14:58:40;;;;;;;;;;;;;;;;;;4973816;28;19922;-82
2023/10/17 15:01:06;;;;;;;;;;;;;;;;;;4968898;28;19988;-81
2023/10/17 15:03:32;;;;;;;;;;;;;;;;;;4970991;28;19930;-81
2023/10/17 15:05:59;;;;;;;;;;;;;;;;;;4970409;28;19933;-81
2023/10/17 15:08:25;;;;;;;;;;;;;;;;;;4965110;28;19928;-81
2023/10/17 15:10:51;;;;;;;;;;;;;;;;;;4974039;28;20000;-81
2023/10/17 15:13:17;;;;;;;;;;;;;;;;;;5003387;28;19921;-81
2023/10/17 15:15:43;;;;;;;;;;;;;;;;;;4970418;28;20239;-81
2023/10/17 15:18:09;;;;;;;;;;;;;;;;;;4966782;28;19944;-81
2023/10/17 15:20:35;;;;;;;;;;;;;;;;;;5002038;28;20378;-81
2023/10/17 15:23:01;;;;;;;;;;;;;;;;;;4969541;28;19922;-81
2023/10/17 15:25:27;;;;;;;;;;;;;;;;;;5000732;28;19983;-81
2023/10/17 15:27:55;;;;;;;;;;;;;;;;;;4970656;28;19922;-81
2023/10/17 15:30:22;;;;;;;;;;;;;;;;;;4971044;28;19925;-81
2023/10/17 15:32:51;;;;;;;;;;;;;;;;;;4964718;28;20298;-80
2023/10/17 15:35:18;;;;;;;;;;;;;;;;;;4972986;28;19923;-80
2023/10/17 15:37:46;;;;;;;;;;;;;;;;;;4971358;28;19969;-80
2023/10/17 15:40:16;;;;;;;;;;;;;;;;;;4966823;28;19922;-78
2023/10/17 15:42:43;;;;;;;;;;;;;;;;;;4981056;28;19969;-78
2023/10/17 15:45:09;;;;;;;;;;;;;;;;;;4968581;28;19933;-81
2023/10/17 15:47:35;;;;;;;;;;;;;;;;;;4974298;28;19926;-77
2023/10/17 15:50:01;;;;;;;;;;;;;;;;;;4968307;28;19921;-77
2023/10/17 15:52:27;;;;;;;;;;;;;;;;;;4991794;28;20302;-78
2023/10/17 15:54:53;;;;;;;;;;;;;;;;;;4972025;28;20377;-78
2023/10/17 15:57:22;;;;;;;;;;;;;;;;;;4970639;28;19969;-77
2023/10/17 15:59:49;;;;;;;;;;;;;;;;;;4970169;28;20032;-76
2023/10/17 16:02:15;;;;;;;;;;;;;;;;;;4973244;28;19926;-76
2023/10/17 16:04:41;;;;;;;;;;;;;;;;;;4973174;28;19922;-76
2023/10/17 16:07:11;;;;;;;;;;;;;;;;;;4981908;28;20358;-75
2023/10/17 16:09:39;;;;;;;;;;;;;;;;;;4959573;28;19942;-76
2023/10/17 16:12:05;;;;;;;;;;;;;;;;;;4969208;28;19930;-76
2023/10/17 16:14:31;;;;;;;;;;;;;;;;;;4967822;28;19922;-77
2023/10/17 16:16:57;;;;;;;;;;;;;;;;;;5000812;28;19926;-76
2023/10/17 16:19:24;;;;;;;;;;;;;;;;;;4967129;28;19939;-77
2023/10/17 16:21:50;;;;;;;;;;;;;;;;;;4969696;28;20349;-76
2023/10/17 16:24:16;;;;;;;;;;;;;;;;;;4974436;28;19926;-77
2023/10/17 16:26:43;;;;;;;;;;;;;;;;;;4973752;28;19925;-77
2023/10/17 16:29:09;;;;;;;;;;;;;;;;;;4970822;28;20016;-78
2023/10/17 16:31:35;;;;;;;;;;;;;;;;;;5001643;28;19928;-77
2023/10/17 16:34:01;;;;;;;;;;;;;;;;;;4967721;28;19922;-77
2023/10/17 16:36:27;;;;;;;;;;;;;;;;;;4972346;28;19922;-78
2023/10/17 16:38:53;;;;;;;;;;;;;;;;;;4970595;28;20452;-78
2023/10/17 16:41:19;;;;;;;;;;;;;;;;;;5001235;28;19926;-76
2023/10/17 16:43:45;;;;;;;;;;;;;;;;;;5002967;28;20282;-76
2023/10/17 16:46:11;;;;;;;;;;;;;;;;;;5003142;28;19930;-76
2023/10/17 16:48:37;;;;;;;;;;;;;;;;;;4969369;28;19922;-78
2023/10/17 16:51:04;;;;;;;;;;;;;;;;;;5002713;28;19929;-78
2023/10/17 16:53:30;;;;;;;;;;;;;;;;;;4967399;28;19926;-79
2023/10/17 16:55:56;;;;;;;;;;;;;;;;;;4967859;28;19922;-81
2023/10/17 16:58:23;;;;;;;;;;;;;;;;;;4971912;28;20146;-82
2023/10/17 17:00:50;;;;;;;;;;;;;;;;;;4980919;28;20032;-81
2023/10/17 17:03:16;;;;;;;;;;;;;;;;;;4975009;28;19922;-81
2023/10/17 17:05:42;;;;;;;;;;;;;;;;;;4971328;28;19928;-82
2023/10/17 17:08:09;;;;;;;;;;;;;;;;;;4980473;28;19925;-80
2023/10/17 17:10:37;;;;;;;;;;;;;;;;;;4975728;28;19933;-81
2023/10/17 17:13:03;;;;;;;;;;;;;;;;;;4980630;28;20310;-81
2023/10/17 17:15:29;;;;;;;;;;;;;;;;;;4979465;28;19922;-82
2023/10/17 17:17:55;;;;;;;;;;;;;;;;;;4968254;28;19929;-77
2023/10/17 17:20:22;;;;;;;;;;;;;;;;;;4968022;28;20386;-83
2023/10/17 17:22:48;;;;;;;;;;;;;;;;;;4973502;28;19922;-79
2023/10/17 17:25:14;;;;;;;;;;;;;;;;;;4977171;28;19929;-79
2023/10/17 17:27:40;;;;;;;;;;;;;;;;;;4971420;28;19926;-81
2023/10/17 17:30:14;;;;;;;;;;;;;;;;;;4963531;28;20362;-81
2023/10/17 17:32:40;;;;;;;;;;;;;;;;;;4971740;28;19965;-81
2023/10/17 17:35:06;;;;;;;;;;;;;;;;;;4970346;28;20342;-82
2023/10/17 17:37:33;;;;;;;;;;;;;;;;;;4967204;28;20020;-82
2023/10/17 17:39:59;;;;;;;;;;;;;;;;;;4968721;28;19922;-82
2023/10/17 17:42:25;;;;;;;;;;;;;;;;;;5000185;28;19930;-82
2023/10/17 17:44:52;;;;;;;;;;;;;;;;;;4972709;28;19930;-82
2023/10/17 17:47:18;;;;;;;;;;;;;;;;;;4960273;28;19933;-82